Time;durP1;ratioP1;P1;durP2;ratioP2;P2;SDS_P1;SDS_P2;PMS_P1;PMS_P2;Temp;Humidity;BMP_temperature;BMP_pressure;BME280_temperature;BME280_humidity;BME280_pressure;Samples;Min_cycle;Max_cycle;Signal;HPM_P1;HPM_P2
2023/06/21 00:02:10;;;;;;;;;;;;;;;32.38;100.00;98505.63;5020291;28;20475;-42
2023/06/21 00:04:36;;;;;;;;;;;;;;;32.44;100.00;98498.69;5018747;28;20489;-42
2023/06/21 00:07:03;;;;;;;;;;;;;;;32.27;100.00;98511.53;5018523;28;19932;-42
2023/06/21 00:09:28;;;;;;;;;;;;;;;32.22;100.00;98508.66;5019570;28;20406;-42
2023/06/21 00:11:53;;;;;;;;;;;;;;;31.82;100.00;98521.81;5019874;28;19928;-42
2023/06/21 00:14:18;;;;;;;;;;;;;;;32.11;100.00;98515.38;5020006;28;19996;-42
2023/06/21 00:16:45;;;;;;;;;;;;;;;31.56;100.00;98531.28;5019562;28;19925;-43
2023/06/21 00:19:11;;;;;;;;;;;;;;;30.99;100.00;98558.84;5019043;28;20408;-42
2023/06/21 00:21:38;;;;;;;;;;;;;;;30.40;100.00;98574.00;5020314;28;19921;-42
2023/06/21 00:24:04;;;;;;;;;;;;;;;28.52;100.00;98612.81;5019618;28;20279;-42
2023/06/21 00:26:29;;;;;;;;;;;;;;;28.59;100.00;98616.41;5023884;28;19971;-42
2023/06/21 00:28:54;;;;;;;;;;;;;;;30.25;100.00;98567.84;5023184;28;19975;-42
2023/06/21 00:31:19;;;;;;;;;;;;;;;30.95;100.00;98563.75;5021587;28;20055;-42
2023/06/21 00:33:45;;;;;;;;;;;;;;;31.14;100.00;98556.94;5021399;28;19921;-42
2023/06/21 00:36:10;;;;;;;;;;;;;;;30.22;100.00;98585.00;5023700;28;19921;-41
2023/06/21 00:38:35;;;;;;;;;;;;;;;29.78;100.00;98603.59;5023116;28;19983;-41
2023/06/21 00:41:04;;;;;;;;;;;;;;;30.03;100.00;98607.59;5021558;28;20008;-42
2023/06/21 00:43:30;;;;;;;;;;;;;;;29.90;100.00;98612.75;5023102;28;19963;-42
2023/06/21 00:45:55;;;;;;;;;;;;;;;30.95;100.00;98579.72;5023848;28;20644;-42
2023/06/21 00:48:20;;;;;;;;;;;;;;;31.24;100.00;98573.38;5021889;28;20286;-42
2023/06/21 00:50:45;;;;;;;;;;;;;;;30.89;100.00;98591.09;5023003;28;20024;-42
2023/06/21 00:53:11;;;;;;;;;;;;;;;29.51;100.00;98632.34;5022811;28;20023;-42
2023/06/21 00:55:36;;;;;;;;;;;;;;;29.50;100.00;98633.34;5022639;28;19959;-42
2023/06/21 00:58:01;;;;;;;;;;;;;;;30.00;100.00;98610.63;5021235;28;19987;-42
2023/06/21 01:00:26;;;;;;;;;;;;;;;31.09;100.00;98580.66;5020496;28;19920;-42
2023/06/21 01:02:56;;;;;;;;;;;;;;;31.14;100.00;98583.56;5022459;28;19917;-42
2023/06/21 01:05:21;;;;;;;;;;;;;;;30.69;100.00;98596.16;5020735;28;19928;-42
2023/06/21 01:08:01;;;;;;;;;;;;;;;30.57;100.00;98592.38;5021487;28;19924;-42
2023/06/21 01:10:30;;;;;;;;;;;;;;;30.22;100.00;98608.91;5022948;28;19928;-42
2023/06/21 01:13:00;;;;;;;;;;;;;;;29.47;100.00;98624.91;5022199;28;19928;-42
2023/06/21 01:15:26;;;;;;;;;;;;;;;29.59;100.00;98615.53;5020013;28;19935;-42
2023/06/21 01:17:52;;;;;;;;;;;;;;;31.03;100.00;98565.44;5023110;28;19921;-42
2023/06/21 01:20:24;;;;;;;;;;;;;;;31.18;100.00;98578.66;5023107;28;20285;-42
2023/06/21 01:22:54;;;;;;;;;;;;;;;31.26;100.00;98586.50;5021758;28;20428;-42
2023/06/21 01:25:20;;;;;;;;;;;;;;;29.93;100.00;98627.50;5021287;28;19921;-43
2023/06/21 01:28:02;;;;;;;;;;;;;;;30.79;100.00;98607.34;5021934;28;20362;-42
2023/06/21 01:30:28;;;;;;;;;;;;;;;31.11;100.00;98602.56;5021561;28;20001;-42
2023/06/21 01:32:53;;;;;;;;;;;;;;;31.11;100.00;98618.53;5019508;28;19971;-43
2023/06/21 01:35:20;;;;;;;;;;;;;;;30.67;100.00;98629.28;5020116;28;19975;-43
2023/06/21 01:37:45;;;;;;;;;;;;;;;30.13;100.00;98644.53;5021280;28;20736;-43
2023/06/21 01:40:11;;;;;;;;;;;;;;;29.21;100.00;98662.44;5021043;28;19943;-43
2023/06/21 01:42:36;;;;;;;;;;;;;;;29.58;100.00;98661.63;5022596;28;19992;-43
2023/06/21 01:45:01;;;;;;;;;;;;;;;29.83;100.00;98659.59;5022272;28;19931;-42
2023/06/21 01:47:27;;;;;;;;;;;;;;;30.03;100.00;98654.59;5021101;28;19925;-42
2023/06/21 01:49:52;;;;;;;;;;;;;;;30.29;100.00;98643.56;5020605;28;19925;-42
2023/06/21 01:52:17;;;;;;;;;;;;;;;29.82;100.00;98673.91;5021442;28;19920;-42
2023/06/21 01:54:42;;;;;;;;;;;;;;;28.54;100.00;98708.84;5021216;28;19921;-42
2023/06/21 01:57:07;;;;;;;;;;;;;;;27.92;100.00;98712.91;5021000;28;20051;-42
2023/06/21 01:59:33;;;;;;;;;;;;;;;29.38;100.00;98666.63;5021960;28;20389;-42
2023/06/21 02:01:59;;;;;;;;;;;;;;;29.56;100.00;98659.19;5022533;28;20282;-42
2023/06/21 02:04:25;;;;;;;;;;;;;;;30.09;100.00;98661.03;5019682;28;20834;-42
2023/06/21 02:06:50;;;;;;;;;;;;;;;30.20;100.00;98665.88;5020558;28;19919;-42
2023/06/21 02:09:15;;;;;;;;;;;;;;;30.29;100.00;98664.81;5020420;28;19925;-42
2023/06/21 02:11:41;;;;;;;;;;;;;;;30.16;100.00;98653.97;5020852;28;19920;-42
2023/06/21 02:14:07;;;;;;;;;;;;;;;30.03;100.00;98655.41;5020632;28;19945;-42
2023/06/21 02:16:32;;;;;;;;;;;;;;;30.16;100.00;98649.47;5021541;28;20020;-44
2023/06/21 02:18:57;;;;;;;;;;;;;;;29.96;100.00;98669.59;5021412;28;20067;-43
2023/06/21 02:21:23;;;;;;;;;;;;;;;29.97;100.00;98677.41;5021836;28;19921;-42
2023/06/21 02:23:48;;;;;;;;;;;;;;;29.57;100.00;98692.66;5021177;28;19917;-42
2023/06/21 02:26:13;;;;;;;;;;;;;;;29.81;100.00;98674.91;5020265;28;19928;-42
2023/06/21 02:28:39;;;;;;;;;;;;;;;28.63;100.00;98715.75;5021920;28;20447;-42
2023/06/21 02:31:04;;;;;;;;;;;;;;;29.22;100.00;98688.78;5020810;28;19921;-42
2023/06/21 02:33:31;;;;;;;;;;;;;;;29.46;100.00;98690.41;5019574;28;19940;-42
2023/06/21 02:35:56;;;;;;;;;;;;;;;28.63;100.00;98713.09;5019592;28;19929;-42
2023/06/21 02:38:21;;;;;;;;;;;;;;;29.68;100.00;98674.69;5021436;28;20405;-42
2023/06/21 02:40:49;;;;;;;;;;;;;;;29.84;100.00;98682.50;5020242;28;19947;-42
2023/06/21 02:43:14;;;;;;;;;;;;;;;29.26;100.00;98692.72;5021377;28;20347;-42
2023/06/21 02:45:39;;;;;;;;;;;;;;;28.73;100.00;98713.69;5020511;28;20007;-41
2023/06/21 02:48:05;;;;;;;;;;;;;;;28.28;100.00;98733.72;5019765;28;19975;-41
2023/06/21 02:50:30;;;;;;;;;;;;;;;29.41;100.00;98698.09;5021288;28;20265;-41
2023/06/21 02:52:55;;;;;;;;;;;;;;;29.59;100.00;98689.84;5021330;28;19917;-42
2023/06/21 02:55:20;;;;;;;;;;;;;;;29.60;100.00;98702.09;5020168;28;20358;-42
2023/06/21 02:57:45;;;;;;;;;;;;;;;29.52;100.00;98695.03;5017248;28;20051;-42
2023/06/21 03:00:27;;;;;;;;;;;;;;;29.64;100.00;98697.25;5016442;28;19925;-42
2023/06/21 03:02:53;;;;;;;;;;;;;;;29.43;100.00;98712.00;5019846;28;19943;-42
2023/06/21 03:05:18;;;;;;;;;;;;;;;29.55;100.00;98699.16;5019494;28;20390;-42
2023/06/21 03:07:44;;;;;;;;;;;;;;;29.45;100.00;98709.19;5021438;28;19939;-42
2023/06/21 03:10:12;;;;;;;;;;;;;;;29.41;100.00;98703.41;5019063;28;20023;-42
2023/06/21 03:12:38;;;;;;;;;;;;;;;29.52;100.00;98710.94;5019145;28;20361;-42
2023/06/21 03:15:04;;;;;;;;;;;;;;;29.50;100.00;98712.13;5017423;28;19921;-42
2023/06/21 03:17:30;;;;;;;;;;;;;;;29.50;100.00;98706.81;5020852;28;19920;-42
2023/06/21 03:19:55;;;;;;;;;;;;;;;29.49;100.00;98710.47;5021002;28;20032;-42
2023/06/21 03:22:20;;;;;;;;;;;;;;;29.43;100.00;98716.50;5021002;28;19932;-42
2023/06/21 03:24:46;;;;;;;;;;;;;;;29.45;100.00;98710.00;5018103;28;19932;-42
2023/06/21 03:27:11;;;;;;;;;;;;;;;29.18;100.00;98725.44;5018912;28;19925;-42
2023/06/21 03:29:36;;;;;;;;;;;;;;;29.50;100.00;98717.44;5020650;28;19983;-42
2023/06/21 03:32:02;;;;;;;;;;;;;;;29.30;100.00;98733.00;5019197;28;19917;-41
2023/06/21 03:34:29;;;;;;;;;;;;;;;29.44;100.00;98737.53;5019572;28;19929;-42
2023/06/21 03:36:54;;;;;;;;;;;;;;;29.26;100.00;98744.94;5020884;28;20013;-42
2023/06/21 03:39:20;;;;;;;;;;;;;;;29.31;100.00;98745.25;5017374;28;19971;-42
2023/06/21 03:41:45;;;;;;;;;;;;;;;28.58;100.00;98757.84;5020660;28;21059;-42
2023/06/21 03:44:10;;;;;;;;;;;;;;;29.33;100.00;98756.50;5020347;28;20418;-42
2023/06/21 03:46:35;;;;;;;;;;;;;;;29.23;100.00;98763.88;5019008;28;20003;-42
2023/06/21 03:49:01;;;;;;;;;;;;;;;28.94;100.00;98771.44;5019044;28;19927;-42
2023/06/21 03:51:26;;;;;;;;;;;;;;;29.05;100.00;98767.56;5020568;28;20512;-43
2023/06/21 03:53:51;;;;;;;;;;;;;;;28.93;100.00;98779.56;5018858;28;20524;-43
2023/06/21 03:56:17;;;;;;;;;;;;;;;29.21;100.00;98772.00;5018259;28;20417;-43
2023/06/21 03:58:43;;;;;;;;;;;;;;;28.41;100.00;98795.91;5020468;28;20408;-43
2023/06/21 04:01:08;;;;;;;;;;;;;;;29.26;100.00;98764.31;5024097;28;19975;-44
2023/06/21 04:03:33;;;;;;;;;;;;;;;28.78;100.00;98772.34;5022752;28;20274;-43
2023/06/21 04:05:58;;;;;;;;;;;;;;;29.17;100.00;98765.38;5023173;28;19929;-43
2023/06/21 04:08:24;;;;;;;;;;;;;;;28.43;100.00;98780.69;5024282;28;19945;-43
2023/06/21 04:10:49;;;;;;;;;;;;;;;29.16;100.00;98771.69;5024045;28;20011;-43
2023/06/21 04:13:14;;;;;;;;;;;;;;;29.53;100.00;98741.78;5023720;28;19964;-43
2023/06/21 04:15:39;;;;;;;;;;;;;;;29.79;100.00;98753.91;5022040;28;19971;-43
2023/06/21 04:18:04;;;;;;;;;;;;;;;29.04;100.00;98776.53;5024064;28;19933;-43
2023/06/21 04:20:30;;;;;;;;;;;;;;;29.91;100.00;98739.19;5023817;28;19924;-43
2023/06/21 04:22:56;;;;;;;;;;;;;;;30.09;100.00;98753.97;5024383;28;19917;-43
2023/06/21 04:25:21;;;;;;;;;;;;;;;29.54;100.00;98771.81;5020983;28;19921;-43
2023/06/21 04:27:46;;;;;;;;;;;;;;;29.10;100.00;98789.13;5021147;28;19921;-43
2023/06/21 04:30:11;;;;;;;;;;;;;;;29.03;100.00;98782.00;5020686;28;19971;-43
2023/06/21 04:32:44;;;;;;;;;;;;;;;29.44;100.00;98777.31;5019594;28;19975;-43
2023/06/21 04:35:09;;;;;;;;;;;;;;;28.85;100.00;98790.19;5020752;28;19930;-43
2023/06/21 04:37:35;;;;;;;;;;;;;;;29.36;100.00;98794.13;5020641;28;20378;-43
2023/06/21 04:40:00;;;;;;;;;;;;;;;30.05;100.00;98768.59;5020507;28;19967;-43
2023/06/21 04:42:25;;;;;;;;;;;;;;;30.56;100.00;98742.19;5021736;28;19927;-43
2023/06/21 04:44:50;;;;;;;;;;;;;;;30.91;100.00;98759.25;5021818;28;19918;-43
2023/06/21 04:47:16;;;;;;;;;;;;;;;30.42;100.00;98797.81;5021709;28;20909;-43
2023/06/21 04:49:41;;;;;;;;;;;;;;;30.22;100.00;98797.50;5022458;28;19936;-43
2023/06/21 04:52:07;;;;;;;;;;;;;;;30.32;100.00;98789.28;5022724;28;20820;-43
2023/06/21 04:54:32;;;;;;;;;;;;;;;29.93;100.00;98814.19;5023013;28;19917;-43
2023/06/21 04:56:57;;;;;;;;;;;;;;;31.03;100.00;98767.56;5023177;28;19917;-43
2023/06/21 04:59:23;;;;;;;;;;;;;;;29.99;100.00;98824.09;5021924;28;19943;-43
2023/06/21 05:01:48;;;;;;;;;;;;;;;30.72;100.00;98791.69;5022963;28;20083;-43
2023/06/21 05:04:14;;;;;;;;;;;;;;;30.49;100.00;98802.41;5019790;28;20585;-44
2023/06/21 05:06:40;;;;;;;;;;;;;;;30.13;100.00;98813.66;5021343;28;19921;-43
2023/06/21 05:09:05;;;;;;;;;;;;;;;30.39;100.00;98822.09;5019306;28;19963;-43
2023/06/21 05:11:31;;;;;;;;;;;;;;;28.90;100.00;98867.41;5020773;28;19976;-43
2023/06/21 05:13:56;;;;;;;;;;;;;;;29.78;100.00;98848.63;5021023;28;19928;-43
2023/06/21 05:16:21;;;;;;;;;;;;;;;28.62;100.00;98883.66;5019323;28;20385;-42
2023/06/21 05:18:46;;;;;;;;;;;;;;;28.09;100.00;98874.38;5020562;28;20392;-43
2023/06/21 05:21:12;;;;;;;;;;;;;;;27.48;100.00;98879.03;5022474;28;19917;-43
2023/06/21 05:23:37;;;;;;;;;;;;;;;28.50;100.00;98866.47;5022625;28;19920;-43
2023/06/21 05:26:02;;;;;;;;;;;;;;;28.38;100.00;98868.59;5023507;28;19917;-43
2023/06/21 05:28:27;;;;;;;;;;;;;;;29.11;100.00;98838.50;5023105;28;19928;-43
2023/06/21 05:30:53;;;;;;;;;;;;;;;28.03;100.00;98878.53;5022784;28;19940;-43
2023/06/21 05:33:18;;;;;;;;;;;;;;;28.74;100.00;98850.53;5020375;28;19913;-42
2023/06/21 05:35:43;;;;;;;;;;;;;;;28.20;100.00;98855.53;5022316;28;19921;-43
2023/06/21 05:38:08;;;;;;;;;;;;;;;27.53;100.00;98874.91;5023069;28;19921;-43
2023/06/21 05:40:34;;;;;;;;;;;;;;;28.81;100.00;98834.78;5021179;28;20990;-43
2023/06/21 05:43:01;;;;;;;;;;;;;;;29.16;100.00;98838.81;5022540;28;20420;-42
2023/06/21 05:45:27;;;;;;;;;;;;;;;28.70;100.00;98851.84;5022120;28;20302;-42
2023/06/21 05:47:52;;;;;;;;;;;;;;;28.07;100.00;98882.47;5022634;28;19914;-43
2023/06/21 05:50:17;;;;;;;;;;;;;;;28.47;100.00;98870.28;5022076;28;19975;-43
2023/06/21 05:52:42;;;;;;;;;;;;;;;29.26;100.00;98849.19;5022782;28;19989;-43
2023/06/21 05:55:08;;;;;;;;;;;;;;;27.06;100.00;98911.53;5021928;28;19996;-43
2023/06/21 05:57:33;;;;;;;;;;;;;;;28.50;100.00;98869.13;5022361;28;20548;-43
2023/06/21 05:59:58;;;;;;;;;;;;;;;27.75;100.00;98904.41;5022243;28;19924;-43
2023/06/21 06:02:23;;;;;;;;;;;;;;;29.39;100.00;98867.22;5021944;28;19967;-43
2023/06/21 06:04:49;;;;;;;;;;;;;;;28.37;100.00;98864.28;5021777;28;19971;-43
2023/06/21 06:07:14;;;;;;;;;;;;;;;27.93;100.00;98902.47;5021957;28;19932;-43
2023/06/21 06:09:39;;;;;;;;;;;;;;;28.63;100.00;98887.97;5022282;28;19921;-43
2023/06/21 06:12:05;;;;;;;;;;;;;;;28.27;100.00;98901.53;5020751;28;19924;-43
2023/06/21 06:14:31;;;;;;;;;;;;;;;28.69;100.00;98897.91;5021662;28;19960;-43
2023/06/21 06:16:56;;;;;;;;;;;;;;;29.13;100.00;98892.19;5021522;28;19917;-43
2023/06/21 06:19:21;;;;;;;;;;;;;;;28.82;100.00;98896.56;5021969;28;20441;-43
2023/06/21 06:21:47;;;;;;;;;;;;;;;29.05;100.00;98894.03;5021490;28;19921;-43
2023/06/21 06:24:12;;;;;;;;;;;;;;;28.92;100.00;98913.94;5020991;28;19979;-43
2023/06/21 06:26:37;;;;;;;;;;;;;;;30.30;100.00;98867.53;5021745;28;19917;-43
2023/06/21 06:29:03;;;;;;;;;;;;;;;31.66;100.00;98861.88;5021461;28;19921;-44
2023/06/21 06:31:28;;;;;;;;;;;;;;;31.60;100.00;98881.25;5020119;28;19971;-44
2023/06/21 06:33:54;;;;;;;;;;;;;;;31.25;100.00;98878.34;5019226;28;19921;-43
2023/06/21 06:36:19;;;;;;;;;;;;;;;29.60;100.00;98928.50;5021481;28;20344;-44
2023/06/21 06:38:48;;;;;;;;;;;;;;;28.97;100.00;98948.72;5021334;28;19921;-43
2023/06/21 06:41:13;;;;;;;;;;;;;;;31.30;100.00;98891.09;5021391;28;19917;-44
2023/06/21 06:43:38;;;;;;;;;;;;;;;32.18;100.00;98851.13;5021007;28;20370;-45
2023/06/21 06:46:03;;;;;;;;;;;;;;;30.82;100.00;98920.69;5021354;28;19953;-44
2023/06/21 06:48:29;;;;;;;;;;;;;;;32.17;100.00;98886.78;5021493;28;19956;-44
2023/06/21 06:50:54;;;;;;;;;;;;;;;31.34;100.00;98902.19;5020998;28;19960;-44
2023/06/21 06:53:19;;;;;;;;;;;;;;;31.47;100.00;98907.72;5020986;28;19948;-43
2023/06/21 06:55:45;;;;;;;;;;;;;;;31.90;100.00;98902.47;5021222;28;19991;-44
2023/06/21 06:58:10;;;;;;;;;;;;;;;30.91;100.00;98912.69;5021183;28;19917;-44
2023/06/21 07:00:35;;;;;;;;;;;;;;;32.13;98.78;98864.19;5020914;28;19921;-45
2023/06/21 07:03:00;;;;;;;;;;;;;;;31.59;100.00;98911.56;5021284;28;19934;-44
2023/06/21 07:05:26;;;;;;;;;;;;;;;30.73;100.00;98905.84;5020649;28;19917;-44
2023/06/21 07:07:52;;;;;;;;;;;;;;;33.42;98.46;98858.50;5020928;28;19924;-45
2023/06/21 07:10:17;;;;;;;;;;;;;;;31.04;100.00;98912.84;5020870;28;19921;-44
2023/06/21 07:12:43;;;;;;;;;;;;;;;31.00;100.00;98899.09;5020846;28;20388;-45
2023/06/21 07:15:08;;;;;;;;;;;;;;;31.87;100.00;98862.91;5020783;28;20342;-44
2023/06/21 07:17:33;;;;;;;;;;;;;;;31.16;100.00;98887.44;5020968;28;19958;-44
2023/06/21 07:19:58;;;;;;;;;;;;;;;32.32;99.60;98862.72;5020790;28;19917;-44
2023/06/21 07:22:24;;;;;;;;;;;;;;;32.78;96.49;98854.28;5020705;28;19917;-44
2023/06/21 07:24:49;;;;;;;;;;;;;;;33.91;89.80;98836.84;5020364;28;19917;-44
2023/06/21 07:27:14;;;;;;;;;;;;;;;33.48;92.09;98855.84;5020556;28;19921;-45
2023/06/21 07:29:39;;;;;;;;;;;;;;;32.72;100.00;98901.19;5020811;28;19924;-44
2023/06/21 07:32:05;;;;;;;;;;;;;;;32.74;98.28;98883.16;5019317;28;19928;-46
2023/06/21 07:34:30;;;;;;;;;;;;;;;31.32;100.00;98920.19;5019275;28;19921;-45
2023/06/21 07:36:55;;;;;;;;;;;;;;;32.07;100.00;98911.09;5019790;28;19928;-45
2023/06/21 07:39:20;;;;;;;;;;;;;;;31.28;100.00;98917.06;5020161;28;19928;-46
2023/06/21 07:41:46;;;;;;;;;;;;;;;31.72;100.00;98915.38;5020270;28;19917;-45
2023/06/21 07:44:11;;;;;;;;;;;;;;;32.74;100.00;98890.34;5020039;28;19924;-45
2023/06/21 07:46:36;;;;;;;;;;;;;;;32.25;100.00;98900.81;5021238;28;19913;-44
2023/06/21 07:49:01;;;;;;;;;;;;;;;32.35;97.36;98889.81;5020220;28;20386;-44
2023/06/21 07:51:27;;;;;;;;;;;;;;;34.10;92.50;98861.16;5020459;28;19925;-44
2023/06/21 07:53:52;;;;;;;;;;;;;;;33.38;93.58;98883.94;5020132;28;20362;-44
2023/06/21 07:56:17;;;;;;;;;;;;;;;30.32;100.00;98956.66;5020599;28;20428;-44
2023/06/21 07:58:43;;;;;;;;;;;;;;;30.84;100.00;98952.44;5020709;28;19921;-45
2023/06/21 08:01:08;;;;;;;;;;;;;;;30.82;100.00;98935.84;5020179;28;19927;-44
2023/06/21 08:03:33;;;;;;;;;;;;;;;32.17;100.00;98922.25;5020040;28;19921;-44
2023/06/21 08:05:58;;;;;;;;;;;;;;;34.01;96.18;98873.88;5020221;28;20073;-44
2023/06/21 08:08:24;;;;;;;;;;;;;;;33.60;94.86;98893.50;5020187;28;20011;-45
2023/06/21 08:10:49;;;;;;;;;;;;;;;34.15;91.99;98874.75;5019643;28;20040;-44
2023/06/21 08:13:18;;;;;;;;;;;;;;;34.67;87.50;98861.56;5019727;28;19960;-45
2023/06/21 08:15:43;;;;;;;;;;;;;;;33.29;92.61;98896.63;5020163;28;19940;-44
2023/06/21 08:18:09;;;;;;;;;;;;;;;31.45;100.00;98950.50;5020718;28;20382;-44
2023/06/21 08:20:34;;;;;;;;;;;;;;;33.43;99.56;98909.00;5020462;28;20293;-44
2023/06/21 08:22:59;;;;;;;;;;;;;;;33.50;95.03;98895.69;5019116;28;20293;-45
2023/06/21 08:25:24;;;;;;;;;;;;;;;34.45;91.95;98888.50;5019296;28;20402;-46
2023/06/21 08:27:50;;;;;;;;;;;;;;;33.71;89.83;98902.75;5018155;28;20364;-45
2023/06/21 08:30:15;;;;;;;;;;;;;;;34.92;86.25;98878.59;5014614;28;19936;-45
2023/06/21 08:32:40;;;;;;;;;;;;;;;36.54;79.98;98839.97;5016135;28;19921;-45
2023/06/21 08:35:06;;;;;;;;;;;;;;;34.40;85.07;98888.31;5009110;28;19925;-44
2023/06/21 08:37:31;;;;;;;;;;;;;;;33.39;92.57;98938.97;5018037;28;19921;-46
2023/06/21 08:39:57;;;;;;;;;;;;;;;35.39;85.03;98865.06;5017485;28;19925;-46
2023/06/21 08:42:24;;;;;;;;;;;;;;;35.10;86.08;98883.28;5016995;28;19921;-46
2023/06/21 08:44:53;;;;;;;;;;;;;;;33.72;90.45;98923.13;5016837;28;19928;-45
2023/06/21 08:47:19;;;;;;;;;;;;;;;35.90;85.95;98874.09;5022014;28;19965;-45
2023/06/21 08:49:44;;;;;;;;;;;;;;;34.08;96.80;98943.38;5021878;28;19960;-47
2023/06/21 08:52:10;;;;;;;;;;;;;;;31.27;100.00;98969.47;5017937;28;20024;-45
2023/06/21 08:54:35;;;;;;;;;;;;;;;31.06;100.00;98990.63;5020968;28;19933;-45
2023/06/21 08:57:05;;;;;;;;;;;;;;;30.07;100.00;98982.53;5021896;28;19924;-45
2023/06/21 08:59:35;;;;;;;;;;;;;;;31.22;100.00;98961.19;5022291;28;19971;-45
2023/06/21 09:02:19;;;;;;;;;;;;;;;31.95;100.00;98942.69;5021411;28;20431;-46
2023/06/21 09:04:45;;;;;;;;;;;;;;;32.49;100.00;98931.53;5022425;28;19928;-44
2023/06/21 09:07:11;;;;;;;;;;;;;;;34.38;91.83;98890.38;5020279;28;19920;-44
2023/06/21 09:09:36;;;;;;;;;;;;;;;31.88;100.00;98961.25;5022379;28;20016;-46
2023/06/21 09:12:01;;;;;;;;;;;;;;;29.31;100.00;99008.69;5018343;28;19917;-45
2023/06/21 09:14:31;;;;;;;;;;;;;;;29.12;100.00;99001.09;5020572;28;19922;-45
2023/06/21 09:16:57;;;;;;;;;;;;;;;29.62;100.00;98992.00;5020752;28;19964;-45
2023/06/21 09:19:22;;;;;;;;;;;;;;;32.72;100.00;98917.19;5022251;28;19956;-44
2023/06/21 09:21:47;;;;;;;;;;;;;;;33.11;100.00;98921.16;5020189;28;19921;-44
2023/06/21 09:24:12;;;;;;;;;;;;;;;33.49;96.90;98896.72;5020197;28;19965;-45
2023/06/21 09:26:38;;;;;;;;;;;;;;;34.28;95.02;98895.28;5020504;28;19932;-43
2023/06/21 09:29:03;;;;;;;;;;;;;;;35.88;88.14;98878.84;5020894;28;19927;-43
2023/06/21 09:31:28;;;;;;;;;;;;;;;33.75;94.25;98934.22;5021056;28;19971;-44
2023/06/21 09:33:54;;;;;;;;;;;;;;;33.85;92.64;98915.16;5020715;28;19921;-45
2023/06/21 09:36:19;;;;;;;;;;;;;;;33.77;92.60;98925.19;5021491;28;19929;-44
2023/06/21 09:38:44;;;;;;;;;;;;;;;34.28;87.16;98903.31;5021172;28;19931;-44
2023/06/21 09:41:10;;;;;;;;;;;;;;;34.80;87.16;98892.81;5022723;28;19917;-44
2023/06/21 09:43:39;;;;;;;;;;;;;;;33.70;87.07;98909.97;5022444;28;19933;-44
2023/06/21 09:46:07;;;;;;;;;;;;;;;33.80;94.67;98927.44;5022238;28;19995;-46
2023/06/21 09:48:35;;;;;;;;;;;;;;;35.18;86.10;98879.59;5021046;28;19917;-44
2023/06/21 09:51:01;;;;;;;;;;;;;;;34.64;84.70;98891.41;5020085;28;20010;-45
2023/06/21 09:53:26;;;;;;;;;;;;;;;34.76;88.86;98906.63;5021343;28;20394;-44
2023/06/21 09:55:51;;;;;;;;;;;;;;;35.16;82.10;98890.50;5021221;28;19921;-45
2023/06/21 09:58:16;;;;;;;;;;;;;;;36.93;79.95;98865.63;5019679;28;19944;-44
2023/06/21 10:00:42;;;;;;;;;;;;;;;35.89;78.36;98880.50;5021828;28;19979;-44
2023/06/21 10:03:08;;;;;;;;;;;;;;;34.77;87.79;98929.66;5019926;28;20846;-44
2023/06/21 10:05:33;;;;;;;;;;;;;;;32.40;100.00;98986.00;5021819;28;19924;-43
2023/06/21 10:07:58;;;;;;;;;;;;;;;31.25;100.00;98984.78;5021298;28;19921;-44
2023/06/21 10:10:24;;;;;;;;;;;;;;;30.99;100.00;98982.53;5021113;28;19952;-43
2023/06/21 10:12:53;;;;;;;;;;;;;;;31.57;100.00;98956.19;5021756;28;19917;-43
2023/06/21 10:15:18;;;;;;;;;;;;;;;34.50;97.20;98912.78;5021626;28;20270;-43
2023/06/21 10:17:45;;;;;;;;;;;;;;;34.32;93.54;98928.59;5022328;28;19944;-43
2023/06/21 10:20:10;;;;;;;;;;;;;;;31.79;99.49;98990.84;5020780;28;19921;-43
2023/06/21 10:22:36;;;;;;;;;;;;;;;32.54;100.00;98978.19;5019512;28;19999;-43
2023/06/21 10:25:02;;;;;;;;;;;;;;;32.64;100.00;98974.19;5018825;28;19921;-43
2023/06/21 10:27:27;;;;;;;;;;;;;;;33.77;96.43;98942.03;5020366;28;19917;-42
2023/06/21 10:29:58;;;;;;;;;;;;;;;33.65;94.47;98949.81;5021825;28;20020;-43
2023/06/21 10:32:24;;;;;;;;;;;;;;;34.29;90.98;98947.75;5019413;28;19921;-43
2023/06/21 10:34:49;;;;;;;;;;;;;;;36.11;87.39;98921.22;5019662;28;19921;-43
2023/06/21 10:37:27;;;;;;;;;;;;;;;33.27;93.60;98960.88;5021648;28;19921;-42
2023/06/21 10:39:53;;;;;;;;;;;;;;;32.02;100.00;99002.25;5020173;28;19913;-44
2023/06/21 10:42:19;;;;;;;;;;;;;;;36.29;87.09;98904.34;5020225;28;19917;-43
2023/06/21 10:44:44;;;;;;;;;;;;;;;38.15;76.86;98888.84;5021196;28;20482;-43
2023/06/21 10:47:10;;;;;;;;;;;;;;;34.79;89.57;98974.94;5021791;28;20020;-44
2023/06/21 10:49:35;;;;;;;;;;;;;;;33.28;87.34;98957.22;5021256;28;19978;-44
2023/06/21 10:52:00;;;;;;;;;;;;;;;34.96;85.65;98925.31;5021283;28;20051;-43
2023/06/21 10:54:25;;;;;;;;;;;;;;;37.20;80.91;98901.06;5019373;28;20004;-42
2023/06/21 10:56:51;;;;;;;;;;;;;;;36.45;77.94;98906.50;5019028;28;19921;-44
2023/06/21 10:59:17;;;;;;;;;;;;;;;35.93;83.74;98940.69;5020702;28;19928;-43
2023/06/21 11:01:42;;;;;;;;;;;;;;;37.34;82.47;98935.81;5019853;28;19917;-43
2023/06/21 11:04:07;;;;;;;;;;;;;;;35.81;84.88;98970.84;5019327;28;19942;-43
2023/06/21 11:06:34;;;;;;;;;;;;;;;35.97;86.29;98974.88;5020850;28;20344;-44
2023/06/21 11:09:12;;;;;;;;;;;;;;;33.34;98.87;99023.13;5018437;28;20453;-44
2023/06/21 11:11:40;;;;;;;;;;;;;;;32.14;97.24;99004.38;5020951;28;19921;-45
2023/06/21 11:14:05;;;;;;;;;;;;;;;31.48;100.00;99033.66;5016403;28;20458;-43
2023/06/21 11:16:31;;;;;;;;;;;;;;;31.72;100.00;99037.88;5013842;28;19921;-43
2023/06/21 11:18:59;;;;;;;;;;;;;;;33.09;100.00;99011.25;5014712;28;19921;-43
2023/06/21 11:21:37;;;;;;;;;;;;;;;32.00;100.00;99025.56;5016564;28;19939;-39
2023/06/21 11:24:05;;;;;;;;;;;;;;;32.19;100.00;99018.00;5017947;28;20002;-39
2023/06/21 11:26:48;;;;;;;;;;;;;;;32.88;100.00;99007.59;5013333;28;21619;-39
2023/06/21 11:29:13;;;;;;;;;;;;;;;32.24;100.00;99020.91;5031131;28;19998;-38
2023/06/21 11:31:40;;;;;;;;;;;;;;;31.82;99.81;99014.47;5012956;28;19933;-39
2023/06/21 11:34:06;;;;;;;;;;;;;;;32.21;100.00;99029.28;5015962;28;19970;-39
2023/06/21 11:36:32;;;;;;;;;;;;;;;32.43;99.65;99009.66;5015898;28;19921;-39
2023/06/21 11:38:58;;;;;;;;;;;;;;;31.44;97.07;99022.53;5016899;28;19921;-39
2023/06/21 11:41:55;;;;;;;;;;;;;;;33.81;96.28;98990.56;5017726;28;19920;-39
2023/06/21 11:44:21;;;;;;;;;;;;;;;34.43;92.56;98988.69;5015435;28;19925;-39
2023/06/21 11:46:47;;;;;;;;;;;;;;;37.81;79.78;98920.75;5016475;28;19952;-39
2023/06/21 11:49:12;;;;;;;;;;;;;;;33.19;95.12;99046.47;5010939;28;19925;-39
2023/06/21 11:51:48;;;;;;;;;;;;;;;32.24;99.04;99037.72;5017092;28;19980;-39
2023/06/21 11:54:13;;;;;;;;;;;;;;;32.51;99.97;99022.03;5014571;28;19920;-39
2023/06/21 11:56:38;;;;;;;;;;;;;;;33.56;99.21;99011.56;5012949;28;19932;-38
2023/06/21 11:59:06;;;;;;;;;;;;;;;32.44;98.28;99011.28;5016644;28;19921;-39
2023/06/21 12:01:32;;;;;;;;;;;;;;;32.00;100.00;99036.22;5014300;28;20496;-39
2023/06/21 12:04:00;;;;;;;;;;;;;;;31.82;100.00;99044.56;5016491;28;20011;-39
2023/06/21 12:06:26;;;;;;;;;;;;;;;32.85;100.00;99012.50;5018473;28;19955;-38
2023/06/21 12:08:57;;;;;;;;;;;;;;;33.92;96.44;98992.66;5015397;28;19967;-39
2023/06/21 12:11:24;;;;;;;;;;;;;;;33.87;94.87;98981.72;5019059;28;20077;-39
2023/06/21 12:13:49;;;;;;;;;;;;;;;34.29;98.13;99014.56;5019882;28;19921;-38
2023/06/21 12:16:14;;;;;;;;;;;;;;;33.21;93.79;98988.38;5015480;28;19928;-39
2023/06/21 12:18:40;;;;;;;;;;;;;;;33.20;90.72;98975.22;5011579;28;19978;-39
2023/06/21 12:21:07;;;;;;;;;;;;;;;32.43;99.57;99033.63;5020898;28;19929;-39
2023/06/21 12:23:32;;;;;;;;;;;;;;;33.85;95.16;98997.13;5023120;28;20997;-39
2023/06/21 12:25:58;;;;;;;;;;;;;;;33.94;94.11;98985.25;5023496;28;19963;-39
2023/06/21 12:28:24;;;;;;;;;;;;;;;33.78;92.91;98997.13;5020062;28;19921;-39
2023/06/21 12:30:49;;;;;;;;;;;;;;;33.65;92.69;98997.88;5023755;28;19947;-39
2023/06/21 12:33:15;;;;;;;;;;;;;;;33.51;96.12;99017.50;5019420;28;20047;-39
2023/06/21 12:35:41;;;;;;;;;;;;;;;36.50;85.09;98941.53;5018020;28;19921;-39